Terminal Aerodrome Forecast
Issued by NWS

Home | Current Version | Previous Version | Text Only | Print | Product List | Glossary On
Versions: 1 2 3 4 5 6 7 8 9 10 11 12 13 14 15
000
FTUS46 KHNX 240521
TAFFAT
TAF
KFAT 240521Z 2406/2506 VRB04KT P6SM FEW200
     FM241800 14010KT P6SM OVC150
     FM242200 16010KT 6SM -SHRA OVC100
     FM250000 12011KT 5SM -RA OVC050=

USA.gov is the U.S. government's official web portal to all federal, state and local government web resources and services.